sensor_id;sensor_type;location;lat;lon;timestamp;temperature;humidity
37518;DHT22;23366;52.498;13.446;2023-05-10T00:02:29;12.70;83.10
37518;DHT22;23366;52.498;13.446;2023-05-10T00:04:58;12.70;83.20
37518;DHT22;23366;52.498;13.446;2023-05-10T00:07:30;12.70;83.50
37518;DHT22;23366;52.498;13.446;2023-05-10T00:09:56;12.70;83.80
37518;DHT22;23366;52.498;13.446;2023-05-10T00:12:44;12.70;84.10
37518;DHT22;23366;52.498;13.446;2023-05-10T00:15:10;12.60;84.30
37518;DHT22;23366;52.498;13.446;2023-05-10T00:17:36;12.60;84.70
37518;DHT22;23366;52.498;13.446;2023-05-10T00:20:01;12.60;85.10
37518;DHT22;23366;52.498;13.446;2023-05-10T00:22:27;12.60;85.10
37518;DHT22;23366;52.498;13.446;2023-05-10T00:24:52;12.50;85.30
37518;DHT22;23366;52.498;13.446;2023-05-10T00:27:18;12.50;85.20
37518;DHT22;23366;52.498;13.446;2023-05-10T00:29:43;12.50;85.60
37518;DHT22;23366;52.498;13.446;2023-05-10T00:32:09;12.50;85.90
37518;DHT22;23366;52.498;13.446;2023-05-10T00:34:34;12.50;86.50
37518;DHT22;23366;52.498;13.446;2023-05-10T00:36:59;12.40;86.80
37518;DHT22;23366;52.498;13.446;2023-05-10T00:39:25;12.40;87.00
37518;DHT22;23366;52.498;13.446;2023-05-10T00:41:52;12.30;87.50
37518;DHT22;23366;52.498;13.446;2023-05-10T00:44:17;12.30;87.70
37518;DHT22;23366;52.498;13.446;2023-05-10T00:46:43;12.20;88.00
37518;DHT22;23366;52.498;13.446;2023-05-10T00:49:10;12.20;88.20
37518;DHT22;23366;52.498;13.446;2023-05-10T00:51:35;12.20;88.30
37518;DHT22;23366;52.498;13.446;2023-05-10T00:54:02;12.10;88.50
37518;DHT22;23366;52.498;13.446;2023-05-10T00:56:28;12.10;89.10
37518;DHT22;23366;52.498;13.446;2023-05-10T00:58:55;12.10;89.60
37518;DHT22;23366;52.498;13.446;2023-05-10T01:01:20;12.10;89.70
37518;DHT22;23366;52.498;13.446;2023-05-10T01:03:46;12.00;90.00
37518;DHT22;23366;52.498;13.446;2023-05-10T01:06:12;12.00;90.00
37518;DHT22;23366;52.498;13.446;2023-05-10T01:08:38;11.90;90.20
37518;DHT22;23366;52.498;13.446;2023-05-10T01:11:04;11.90;90.30
37518;DHT22;23366;52.498;13.446;2023-05-10T01:13:31;11.90;90.50
37518;DHT22;23366;52.498;13.446;2023-05-10T01:15:59;11.80;90.60
37518;DHT22;23366;52.498;13.446;2023-05-10T01:18:25;11.80;91.00
37518;DHT22;23366;52.498;13.446;2023-05-10T01:21:04;11.80;91.10
37518;DHT22;23366;52.498;13.446;2023-05-10T01:26:47;11.80;91.40
37518;DHT22;23366;52.498;13.446;2023-05-10T01:32:11;11.70;91.90
37518;DHT22;23366;52.498;13.446;2023-05-10T01:35:03;11.70;92.10
37518;DHT22;23366;52.498;13.446;2023-05-10T01:37:45;11.60;92.10
37518;DHT22;23366;52.498;13.446;2023-05-10T01:40:26;11.60;92.60
37518;DHT22;23366;52.498;13.446;2023-05-10T01:43:00;11.50;92.80
37518;DHT22;23366;52.498;13.446;2023-05-10T01:45:37;11.50;93.10
37518;DHT22;23366;52.498;13.446;2023-05-10T01:48:09;11.50;93.10
37518;DHT22;23366;52.498;13.446;2023-05-10T01:50:38;11.40;93.30
37518;DHT22;23366;52.498;13.446;2023-05-10T01:53:08;11.40;93.60
37518;DHT22;23366;52.498;13.446;2023-05-10T01:55:43;11.40;93.70
37518;DHT22;23366;52.498;13.446;2023-05-10T01:58:14;11.40;93.90
37518;DHT22;23366;52.498;13.446;2023-05-10T02:00:43;11.40;94.20
37518;DHT22;23366;52.498;13.446;2023-05-10T02:03:10;11.30;94.30
37518;DHT22;23366;52.498;13.446;2023-05-10T02:05:36;11.30;94.30
37518;DHT22;23366;52.498;13.446;2023-05-10T02:08:05;11.30;94.50
37518;DHT22;23366;52.498;13.446;2023-05-10T02:10:32;11.30;94.50
37518;DHT22;23366;52.498;13.446;2023-05-10T02:12:59;11.30;94.80
37518;DHT22;23366;52.498;13.446;2023-05-10T02:15:26;11.30;95.10
37518;DHT22;23366;52.498;13.446;2023-05-10T02:17:54;11.30;95.20
37518;DHT22;23366;52.498;13.446;2023-05-10T02:20:22;11.20;95.20
37518;DHT22;23366;52.498;13.446;2023-05-10T02:22:50;11.20;95.10
37518;DHT22;23366;52.498;13.446;2023-05-10T02:25:18;11.20;95.30
37518;DHT22;23366;52.498;13.446;2023-05-10T02:27:44;11.20;95.60
37518;DHT22;23366;52.498;13.446;2023-05-10T02:30:11;11.20;95.90
37518;DHT22;23366;52.498;13.446;2023-05-10T02:32:37;11.20;95.90
37518;DHT22;23366;52.498;13.446;2023-05-10T02:35:04;11.10;96.00
37518;DHT22;23366;52.498;13.446;2023-05-10T02:37:30;11.10;96.10
37518;DHT22;23366;52.498;13.446;2023-05-10T02:39:58;11.00;96.30
37518;DHT22;23366;52.498;13.446;2023-05-10T02:42:26;11.00;96.60
37518;DHT22;23366;52.498;13.446;2023-05-10T02:44:56;11.00;96.70
37518;DHT22;23366;52.498;13.446;2023-05-10T02:47:22;11.00;97.10
37518;DHT22;23366;52.498;13.446;2023-05-10T02:49:48;11.00;97.30
37518;DHT22;23366;52.498;13.446;2023-05-10T02:52:16;10.90;97.30
37518;DHT22;23366;52.498;13.446;2023-05-10T02:54:45;10.90;97.60
37518;DHT22;23366;52.498;13.446;2023-05-10T02:57:17;10.90;97.60
37518;DHT22;23366;52.498;13.446;2023-05-10T02:59:47;10.90;97.70
37518;DHT22;23366;52.498;13.446;2023-05-10T03:02:13;10.80;97.90
37518;DHT22;23366;52.498;13.446;2023-05-10T03:04:38;10.80;97.90
37518;DHT22;23366;52.498;13.446;2023-05-10T03:07:04;10.80;98.10
37518;DHT22;23366;52.498;13.446;2023-05-10T03:09:31;10.70;98.20
37518;DHT22;23366;52.498;13.446;2023-05-10T03:15:03;10.70;98.50
37518;DHT22;23366;52.498;13.446;2023-05-10T03:17:45;10.70;98.50
37518;DHT22;23366;52.498;13.446;2023-05-10T03:20:20;10.70;98.70
37518;DHT22;23366;52.498;13.446;2023-05-10T03:25:33;10.70;98.50
37518;DHT22;23366;52.498;13.446;2023-05-10T03:28:01;10.70;98.80
37518;DHT22;23366;52.498;13.446;2023-05-10T03:30:27;10.70;98.70
37518;DHT22;23366;52.498;13.446;2023-05-10T03:32:52;10.70;98.90
37518;DHT22;23366;52.498;13.446;2023-05-10T03:35:18;10.70;99.10
37518;DHT22;23366;52.498;13.446;2023-05-10T03:37:43;10.70;99.40
37518;DHT22;23366;52.498;13.446;2023-05-10T03:40:09;10.70;99.30
37518;DHT22;23366;52.498;13.446;2023-05-10T03:42:35;10.70;99.50
37518;DHT22;23366;52.498;13.446;2023-05-10T03:45:01;10.70;99.50
37518;DHT22;23366;52.498;13.446;2023-05-10T03:47:26;10.80;99.40
37518;DHT22;23366;52.498;13.446;2023-05-10T03:49:52;10.70;99.10
37518;DHT22;23366;52.498;13.446;2023-05-10T03:52:17;10.70;99.10
37518;DHT22;23366;52.498;13.446;2023-05-10T03:54:43;10.70;99.00
37518;DHT22;23366;52.498;13.446;2023-05-10T03:57:08;10.70;98.90
37518;DHT22;23366;52.498;13.446;2023-05-10T03:59:35;10.80;99.20
37518;DHT22;23366;52.498;13.446;2023-05-10T04:02:00;10.80;99.00
37518;DHT22;23366;52.498;13.446;2023-05-10T04:04:26;10.80;99.00
37518;DHT22;23366;52.498;13.446;2023-05-10T04:06:51;10.80;99.00
37518;DHT22;23366;52.498;13.446;2023-05-10T04:09:17;10.90;99.00
37518;DHT22;23366;52.498;13.446;2023-05-10T04:11:42;10.90;98.70
37518;DHT22;23366;52.498;13.446;2023-05-10T04:14:08;11.00;98.80
37518;DHT22;23366;52.498;13.446;2023-05-10T04:16:34;11.00;98.90
37518;DHT22;23366;52.498;13.446;2023-05-10T04:18:59;11.10;98.60
37518;DHT22;23366;52.498;13.446;2023-05-10T04:21:25;11.10;98.50
37518;DHT22;23366;52.498;13.446;2023-05-10T04:23:50;11.20;98.00
37518;DHT22;23366;52.498;13.446;2023-05-10T04:26:16;11.20;97.90
37518;DHT22;23366;52.498;13.446;2023-05-10T04:28:41;11.30;98.10
37518;DHT22;23366;52.498;13.446;2023-05-10T04:31:08;11.30;98.20
37518;DHT22;23366;52.498;13.446;2023-05-10T04:33:34;11.50;97.70
37518;DHT22;23366;52.498;13.446;2023-05-10T04:36:00;11.50;97.30
37518;DHT22;23366;52.498;13.446;2023-05-10T04:38:29;11.60;96.90
37518;DHT22;23366;52.498;13.446;2023-05-10T04:41:08;11.70;97.00
37518;DHT22;23366;52.498;13.446;2023-05-10T04:43:43;11.90;96.40
37518;DHT22;23366;52.498;13.446;2023-05-10T04:46:19;12.10;96.30
37518;DHT22;23366;52.498;13.446;2023-05-10T04:51:38;12.70;94.70
37518;DHT22;23366;52.498;13.446;2023-05-10T04:54:15;13.20;93.60
37518;DHT22;23366;52.498;13.446;2023-05-10T04:56:50;14.10;92.20
37518;DHT22;23366;52.498;13.446;2023-05-10T04:59:40;15.40;88.80
37518;DHT22;23366;52.498;13.446;2023-05-10T05:02:06;16.60;82.30
37518;DHT22;23366;52.498;13.446;2023-05-10T05:04:31;17.70;79.30
37518;DHT22;23366;52.498;13.446;2023-05-10T05:06:57;18.60;75.00
37518;DHT22;23366;52.498;13.446;2023-05-10T05:09:22;19.80;72.80
37518;DHT22;23366;52.498;13.446;2023-05-10T05:11:48;20.60;68.00
37518;DHT22;23366;52.498;13.446;2023-05-10T05:14:13;21.40;66.30
37518;DHT22;23366;52.498;13.446;2023-05-10T05:16:39;21.50;63.80
37518;DHT22;23366;52.498;13.446;2023-05-10T05:19:04;22.20;63.30
37518;DHT22;23366;52.498;13.446;2023-05-10T05:21:30;22.80;61.60
37518;DHT22;23366;52.498;13.446;2023-05-10T05:23:57;23.00;59.10
37518;DHT22;23366;52.498;13.446;2023-05-10T05:26:22;23.20;58.60
37518;DHT22;23366;52.498;13.446;2023-05-10T05:28:48;23.10;58.80
37518;DHT22;23366;52.498;13.446;2023-05-10T05:31:15;23.20;58.90
37518;DHT22;23366;52.498;13.446;2023-05-10T05:33:40;23.80;57.30
37518;DHT22;23366;52.498;13.446;2023-05-10T05:36:06;24.20;56.70
37518;DHT22;23366;52.498;13.446;2023-05-10T05:38:32;24.70;55.60
37518;DHT22;23366;52.498;13.446;2023-05-10T05:40:57;24.80;54.50
37518;DHT22;23366;52.498;13.446;2023-05-10T05:43:22;24.70;55.00
37518;DHT22;23366;52.498;13.446;2023-05-10T05:45:48;25.00;54.70
37518;DHT22;23366;52.498;13.446;2023-05-10T05:48:14;24.90;54.30
37518;DHT22;23366;52.498;13.446;2023-05-10T05:50:39;25.20;54.00
37518;DHT22;23366;52.498;13.446;2023-05-10T05:53:05;25.30;53.40
37518;DHT22;23366;52.498;13.446;2023-05-10T05:55:30;25.20;53.20
37518;DHT22;23366;52.498;13.446;2023-05-10T05:57:57;25.20;52.80
37518;DHT22;23366;52.498;13.446;2023-05-10T06:00:23;25.40;53.10
37518;DHT22;23366;52.498;13.446;2023-05-10T06:02:48;25.60;53.30
37518;DHT22;23366;52.498;13.446;2023-05-10T06:05:14;25.70;51.70
37518;DHT22;23366;52.498;13.446;2023-05-10T06:07:39;25.20;53.00
37518;DHT22;23366;52.498;13.446;2023-05-10T06:10:08;25.70;52.70
37518;DHT22;23366;52.498;13.446;2023-05-10T06:12:34;25.80;52.20
37518;DHT22;23366;52.498;13.446;2023-05-10T06:14:59;24.90;53.00
37518;DHT22;23366;52.498;13.446;2023-05-10T06:17:24;24.70;53.00
37518;DHT22;23366;52.498;13.446;2023-05-10T06:19:50;24.40;53.80
37518;DHT22;23366;52.498;13.446;2023-05-10T06:22:15;24.90;53.20
37518;DHT22;23366;52.498;13.446;2023-05-10T06:24:41;24.40;54.10
37518;DHT22;23366;52.498;13.446;2023-05-10T06:27:06;24.70;53.50
37518;DHT22;23366;52.498;13.446;2023-05-10T06:29:32;24.80;53.40
37518;DHT22;23366;52.498;13.446;2023-05-10T06:31:58;24.20;53.60
37518;DHT22;23366;52.498;13.446;2023-05-10T06:34:24;23.60;54.30
37518;DHT22;23366;52.498;13.446;2023-05-10T06:36:49;23.90;54.60
37518;DHT22;23366;52.498;13.446;2023-05-10T06:39:15;23.50;54.50
37518;DHT22;23366;52.498;13.446;2023-05-10T06:41:41;23.10;56.20
37518;DHT22;23366;52.498;13.446;2023-05-10T06:44:06;23.90;55.60
37518;DHT22;23366;52.498;13.446;2023-05-10T06:46:32;23.30;54.80
37518;DHT22;23366;52.498;13.446;2023-05-10T06:48:57;23.20;55.70
37518;DHT22;23366;52.498;13.446;2023-05-10T06:51:23;23.30;55.40
37518;DHT22;23366;52.498;13.446;2023-05-10T06:53:48;23.70;55.20
37518;DHT22;23366;52.498;13.446;2023-05-10T06:56:13;24.60;55.10
37518;DHT22;23366;52.498;13.446;2023-05-10T06:58:39;25.30;53.30
37518;DHT22;23366;52.498;13.446;2023-05-10T07:01:05;25.90;52.30
37518;DHT22;23366;52.498;13.446;2023-05-10T07:03:31;26.80;52.30
37518;DHT22;23366;52.498;13.446;2023-05-10T07:06:01;26.80;51.20
37518;DHT22;23366;52.498;13.446;2023-05-10T07:08:28;27.40;50.70
37518;DHT22;23366;52.498;13.446;2023-05-10T07:11:00;27.30;50.10
37518;DHT22;23366;52.498;13.446;2023-05-10T07:13:25;27.30;50.10
37518;DHT22;23366;52.498;13.446;2023-05-10T07:15:51;27.80;50.10
37518;DHT22;23366;52.498;13.446;2023-05-10T07:18:16;28.20;50.30
37518;DHT22;23366;52.498;13.446;2023-05-10T07:20:42;28.20;49.00
37518;DHT22;23366;52.498;13.446;2023-05-10T07:23:07;27.50;49.40
37518;DHT22;23366;52.498;13.446;2023-05-10T07:25:32;27.80;49.90
37518;DHT22;23366;52.498;13.446;2023-05-10T07:27:58;28.80;49.40
37518;DHT22;23366;52.498;13.446;2023-05-10T07:30:23;29.50;47.80
37518;DHT22;23366;52.498;13.446;2023-05-10T07:32:49;30.30;47.50
37518;DHT22;23366;52.498;13.446;2023-05-10T07:35:14;30.40;46.50
37518;DHT22;23366;52.498;13.446;2023-05-10T07:37:40;31.00;46.70
37518;DHT22;23366;52.498;13.446;2023-05-10T07:40:06;31.20;46.20
37518;DHT22;23366;52.498;13.446;2023-05-10T07:42:32;30.80;45.70
37518;DHT22;23366;52.498;13.446;2023-05-10T07:44:57;31.00;46.10
37518;DHT22;23366;52.498;13.446;2023-05-10T07:47:23;32.50;45.60
37518;DHT22;23366;52.498;13.446;2023-05-10T07:49:48;32.60;44.40
37518;DHT22;23366;52.498;13.446;2023-05-10T07:52:14;32.50;44.50
37518;DHT22;23366;52.498;13.446;2023-05-10T07:54:39;33.10;44.30
37518;DHT22;23366;52.498;13.446;2023-05-10T07:57:05;34.00;43.30
37518;DHT22;23366;52.498;13.446;2023-05-10T07:59:30;33.60;42.70
37518;DHT22;23366;52.498;13.446;2023-05-10T08:01:56;33.80;43.10
37518;DHT22;23366;52.498;13.446;2023-05-10T08:04:21;34.10;42.70
37518;DHT22;23366;52.498;13.446;2023-05-10T08:06:47;34.60;42.90
37518;DHT22;23366;52.498;13.446;2023-05-10T08:09:13;35.20;41.70
37518;DHT22;23366;52.498;13.446;2023-05-10T08:11:38;35.30;41.50
37518;DHT22;23366;52.498;13.446;2023-05-10T08:14:04;34.00;42.10
37518;DHT22;23366;52.498;13.446;2023-05-10T08:16:29;33.00;42.60
37518;DHT22;23366;52.498;13.446;2023-05-10T08:18:55;32.70;42.80
37518;DHT22;23366;52.498;13.446;2023-05-10T08:21:20;31.80;43.40
37518;DHT22;23366;52.498;13.446;2023-05-10T08:23:46;32.30;43.70
37518;DHT22;23366;52.498;13.446;2023-05-10T08:26:11;33.10;43.40
37518;DHT22;23366;52.498;13.446;2023-05-10T08:28:37;33.50;42.50
37518;DHT22;23366;52.498;13.446;2023-05-10T08:31:04;33.50;42.90
37518;DHT22;23366;52.498;13.446;2023-05-10T08:33:30;33.40;42.60
37518;DHT22;23366;52.498;13.446;2023-05-10T08:35:55;33.30;42.40
37518;DHT22;23366;52.498;13.446;2023-05-10T08:38:21;33.50;42.70
37518;DHT22;23366;52.498;13.446;2023-05-10T08:40:48;32.90;42.40
37518;DHT22;23366;52.498;13.446;2023-05-10T08:43:14;32.60;42.90
37518;DHT22;23366;52.498;13.446;2023-05-10T08:45:42;32.50;43.10
37518;DHT22;23366;52.498;13.446;2023-05-10T08:48:09;31.90;44.40
37518;DHT22;23366;52.498;13.446;2023-05-10T08:50:39;32.20;43.30
37518;DHT22;23366;52.498;13.446;2023-05-10T08:53:13;32.80;43.90
37518;DHT22;23366;52.498;13.446;2023-05-10T08:55:39;33.40;43.20
37518;DHT22;23366;52.498;13.446;2023-05-10T08:58:06;33.80;43.00
37518;DHT22;23366;52.498;13.446;2023-05-10T09:00:32;34.30;42.10
37518;DHT22;23366;52.498;13.446;2023-05-10T09:02:59;34.20;41.80
37518;DHT22;23366;52.498;13.446;2023-05-10T09:05:24;34.00;42.80
37518;DHT22;23366;52.498;13.446;2023-05-10T09:07:50;33.70;42.20
37518;DHT22;23366;52.498;13.446;2023-05-10T09:10:15;32.70;42.50
37518;DHT22;23366;52.498;13.446;2023-05-10T09:12:41;31.70;43.20
37518;DHT22;23366;52.498;13.446;2023-05-10T09:15:09;31.30;44.00
37518;DHT22;23366;52.498;13.446;2023-05-10T09:17:35;30.70;44.30
37518;DHT22;23366;52.498;13.446;2023-05-10T09:20:03;30.30;45.00
37518;DHT22;23366;52.498;13.446;2023-05-10T09:22:30;29.70;45.90
37518;DHT22;23366;52.498;13.446;2023-05-10T09:25:12;28.90;46.40
37518;DHT22;23366;52.498;13.446;2023-05-10T09:27:48;28.00;46.90
37518;DHT22;23366;52.498;13.446;2023-05-10T09:30:32;27.50;48.60
37518;DHT22;23366;52.498;13.446;2023-05-10T09:32:58;26.50;49.40
37518;DHT22;23366;52.498;13.446;2023-05-10T09:35:26;25.80;50.10
37518;DHT22;23366;52.498;13.446;2023-05-10T09:37:54;24.80;51.30
37518;DHT22;23366;52.498;13.446;2023-05-10T09:40:22;24.20;52.90
37518;DHT22;23366;52.498;13.446;2023-05-10T09:42:56;23.80;53.30
37518;DHT22;23366;52.498;13.446;2023-05-10T09:45:24;23.40;54.40
37518;DHT22;23366;52.498;13.446;2023-05-10T09:47:50;22.80;55.00
37518;DHT22;23366;52.498;13.446;2023-05-10T09:50:15;22.60;55.40
37518;DHT22;23366;52.498;13.446;2023-05-10T09:52:50;22.40;55.80
37518;DHT22;23366;52.498;13.446;2023-05-10T09:55:20;22.00;56.50
37518;DHT22;23366;52.498;13.446;2023-05-10T09:57:47;21.90;57.40
37518;DHT22;23366;52.498;13.446;2023-05-10T10:00:19;21.90;57.70
37518;DHT22;23366;52.498;13.446;2023-05-10T10:02:55;21.80;57.10
37518;DHT22;23366;52.498;13.446;2023-05-10T10:05:20;21.80;58.70
37518;DHT22;23366;52.498;13.446;2023-05-10T10:07:46;21.70;57.20
37518;DHT22;23366;52.498;13.446;2023-05-10T10:10:14;21.60;58.10
37518;DHT22;23366;52.498;13.446;2023-05-10T10:12:40;21.60;58.30
37518;DHT22;23366;52.498;13.446;2023-05-10T10:15:07;21.60;57.90
37518;DHT22;23366;52.498;13.446;2023-05-10T10:17:35;21.50;57.70
37518;DHT22;23366;52.498;13.446;2023-05-10T10:20:03;21.40;58.50
37518;DHT22;23366;52.498;13.446;2023-05-10T10:22:28;21.50;58.80
37518;DHT22;23366;52.498;13.446;2023-05-10T10:24:54;21.40;58.70
37518;DHT22;23366;52.498;13.446;2023-05-10T10:35:31;21.70;58.40
37518;DHT22;23366;52.498;13.446;2023-05-10T10:37:57;21.80;57.80
37518;DHT22;23366;52.498;13.446;2023-05-10T10:40:33;21.80;57.80
37518;DHT22;23366;52.498;13.446;2023-05-10T10:43:22;21.80;58.50
37518;DHT22;23366;52.498;13.446;2023-05-10T10:46:24;21.90;58.50
37518;DHT22;23366;52.498;13.446;2023-05-10T10:49:09;22.10;58.20
37518;DHT22;23366;52.498;13.446;2023-05-10T10:51:38;22.20;58.30
37518;DHT22;23366;52.498;13.446;2023-05-10T10:54:11;22.00;57.50
37518;DHT22;23366;52.498;13.446;2023-05-10T10:56:36;22.00;57.60
37518;DHT22;23366;52.498;13.446;2023-05-10T10:59:02;22.00;57.90
37518;DHT22;23366;52.498;13.446;2023-05-10T11:01:33;21.70;58.50
37518;DHT22;23366;52.498;13.446;2023-05-10T11:06:33;21.60;59.10
37518;DHT22;23366;52.498;13.446;2023-05-10T11:09:00;21.50;58.70
37518;DHT22;23366;52.498;13.446;2023-05-10T11:11:30;21.50;59.00
37518;DHT22;23366;52.498;13.446;2023-05-10T11:14:03;21.60;59.30
37518;DHT22;23366;52.498;13.446;2023-05-10T11:16:42;21.70;58.40
37518;DHT22;23366;52.498;13.446;2023-05-10T11:19:13;21.70;58.90
37518;DHT22;23366;52.498;13.446;2023-05-10T11:21:47;21.70;58.50
37518;DHT22;23366;52.498;13.446;2023-05-10T11:24:15;21.60;58.10
37518;DHT22;23366;52.498;13.446;2023-05-10T11:26:40;21.60;59.40
37518;DHT22;23366;52.498;13.446;2023-05-10T11:29:06;21.70;59.20
37518;DHT22;23366;52.498;13.446;2023-05-10T11:31:31;21.80;59.00
37518;DHT22;23366;52.498;13.446;2023-05-10T11:33:58;21.90;58.70
37518;DHT22;23366;52.498;13.446;2023-05-10T11:36:27;21.90;58.30
37518;DHT22;23366;52.498;13.446;2023-05-10T11:38:54;21.90;58.60
37518;DHT22;23366;52.498;13.446;2023-05-10T11:41:22;21.90;58.10
37518;DHT22;23366;52.498;13.446;2023-05-10T11:43:53;21.80;58.60
37518;DHT22;23366;52.498;13.446;2023-05-10T11:46:21;21.90;58.00
37518;DHT22;23366;52.498;13.446;2023-05-10T11:48:52;21.90;57.30
37518;DHT22;23366;52.498;13.446;2023-05-10T11:51:22;22.00;57.40
37518;DHT22;23366;52.498;13.446;2023-05-10T11:53:49;21.90;57.50
37518;DHT22;23366;52.498;13.446;2023-05-10T11:56:15;21.90;57.10
37518;DHT22;23366;52.498;13.446;2023-05-10T11:58:41;21.80;56.90
37518;DHT22;23366;52.498;13.446;2023-05-10T12:01:08;21.70;58.10
37518;DHT22;23366;52.498;13.446;2023-05-10T12:03:34;21.70;58.20
37518;DHT22;23366;52.498;13.446;2023-05-10T12:06:01;21.90;58.00
37518;DHT22;23366;52.498;13.446;2023-05-10T12:08:28;22.00;56.90
37518;DHT22;23366;52.498;13.446;2023-05-10T12:11:03;22.10;56.70
37518;DHT22;23366;52.498;13.446;2023-05-10T12:13:29;22.20;56.50
37518;DHT22;23366;52.498;13.446;2023-05-10T12:15:58;22.30;57.00
37518;DHT22;23366;52.498;13.446;2023-05-10T12:18:24;22.30;56.60
37518;DHT22;23366;52.498;13.446;2023-05-10T12:20:52;22.20;56.80
37518;DHT22;23366;52.498;13.446;2023-05-10T12:23:21;22.20;57.20
37518;DHT22;23366;52.498;13.446;2023-05-10T12:25:46;22.10;56.70
37518;DHT22;23366;52.498;13.446;2023-05-10T12:28:12;22.10;55.70
37518;DHT22;23366;52.498;13.446;2023-05-10T12:30:38;22.10;55.90
37518;DHT22;23366;52.498;13.446;2023-05-10T12:33:08;22.00;56.60
37518;DHT22;23366;52.498;13.446;2023-05-10T12:35:46;22.00;56.80
37518;DHT22;23366;52.498;13.446;2023-05-10T12:38:35;21.90;57.30
37518;DHT22;23366;52.498;13.446;2023-05-10T12:41:07;21.80;57.50
37518;DHT22;23366;52.498;13.446;2023-05-10T12:43:33;21.70;57.80
37518;DHT22;23366;52.498;13.446;2023-05-10T12:46:11;21.70;58.00
37518;DHT22;23366;52.498;13.446;2023-05-10T12:48:39;21.70;57.60
37518;DHT22;23366;52.498;13.446;2023-05-10T12:51:06;21.70;57.20
37518;DHT22;23366;52.498;13.446;2023-05-10T12:53:34;21.90;57.10
37518;DHT22;23366;52.498;13.446;2023-05-10T12:56:00;21.90;57.00
37518;DHT22;23366;52.498;13.446;2023-05-10T12:58:25;21.90;56.50
37518;DHT22;23366;52.498;13.446;2023-05-10T13:00:51;21.90;56.80
37518;DHT22;23366;52.498;13.446;2023-05-10T13:03:17;22.00;56.90
37518;DHT22;23366;52.498;13.446;2023-05-10T13:05:43;22.00;57.20
37518;DHT22;23366;52.498;13.446;2023-05-10T13:08:08;22.10;57.90
37518;DHT22;23366;52.498;13.446;2023-05-10T13:10:34;22.20;57.60
37518;DHT22;23366;52.498;13.446;2023-05-10T13:12:59;22.20;56.70
37518;DHT22;23366;52.498;13.446;2023-05-10T13:15:25;22.30;56.80
37518;DHT22;23366;52.498;13.446;2023-05-10T13:17:51;22.30;56.00
37518;DHT22;23366;52.498;13.446;2023-05-10T13:20:17;22.20;55.00
37518;DHT22;23366;52.498;13.446;2023-05-10T13:22:44;22.10;54.80
37518;DHT22;23366;52.498;13.446;2023-05-10T13:25:10;22.10;55.30
37518;DHT22;23366;52.498;13.446;2023-05-10T13:27:36;22.10;55.70
37518;DHT22;23366;52.498;13.446;2023-05-10T13:30:02;22.10;56.20
37518;DHT22;23366;52.498;13.446;2023-05-10T13:32:28;22.10;57.20
37518;DHT22;23366;52.498;13.446;2023-05-10T13:34:55;22.20;57.00
37518;DHT22;23366;52.498;13.446;2023-05-10T13:37:20;22.20;56.30
37518;DHT22;23366;52.498;13.446;2023-05-10T13:39:46;22.20;55.90
37518;DHT22;23366;52.498;13.446;2023-05-10T13:42:12;22.10;55.60
37518;DHT22;23366;52.498;13.446;2023-05-10T13:44:39;22.20;56.40
37518;DHT22;23366;52.498;13.446;2023-05-10T13:47:05;22.20;55.70
37518;DHT22;23366;52.498;13.446;2023-05-10T13:49:31;22.20;55.90
37518;DHT22;23366;52.498;13.446;2023-05-10T13:51:56;22.20;55.60
37518;DHT22;23366;52.498;13.446;2023-05-10T13:54:22;22.20;56.10
37518;DHT22;23366;52.498;13.446;2023-05-10T13:56:48;22.20;55.80
37518;DHT22;23366;52.498;13.446;2023-05-10T13:59:14;22.20;55.70
37518;DHT22;23366;52.498;13.446;2023-05-10T14:01:40;22.20;55.90
37518;DHT22;23366;52.498;13.446;2023-05-10T14:04:06;22.30;55.50
37518;DHT22;23366;52.498;13.446;2023-05-10T14:06:38;22.30;55.10
37518;DHT22;23366;52.498;13.446;2023-05-10T14:09:03;22.30;55.00
37518;DHT22;23366;52.498;13.446;2023-05-10T14:11:29;22.30;55.50
37518;DHT22;23366;52.498;13.446;2023-05-10T14:13:54;22.20;55.10
37518;DHT22;23366;52.498;13.446;2023-05-10T14:16:20;22.20;54.60
37518;DHT22;23366;52.498;13.446;2023-05-10T14:18:46;22.20;55.60
37518;DHT22;23366;52.498;13.446;2023-05-10T14:21:12;22.10;55.30
37518;DHT22;23366;52.498;13.446;2023-05-10T14:23:37;22.00;55.20
37518;DHT22;23366;52.498;13.446;2023-05-10T14:26:03;22.00;55.30
37518;DHT22;23366;52.498;13.446;2023-05-10T14:28:29;22.00;54.80
37518;DHT22;23366;52.498;13.446;2023-05-10T14:30:54;22.10;54.70
37518;DHT22;23366;52.498;13.446;2023-05-10T14:33:20;22.10;54.60
37518;DHT22;23366;52.498;13.446;2023-05-10T14:35:46;22.10;53.90
37518;DHT22;23366;52.498;13.446;2023-05-10T14:38:12;22.20;53.80
37518;DHT22;23366;52.498;13.446;2023-05-10T14:40:37;22.10;53.90
37518;DHT22;23366;52.498;13.446;2023-05-10T14:43:03;22.20;53.70
37518;DHT22;23366;52.498;13.446;2023-05-10T14:45:28;22.10;54.00
37518;DHT22;23366;52.498;13.446;2023-05-10T14:47:54;22.10;54.70
37518;DHT22;23366;52.498;13.446;2023-05-10T14:50:19;22.10;54.60
37518;DHT22;23366;52.498;13.446;2023-05-10T14:52:45;22.10;54.80
37518;DHT22;23366;52.498;13.446;2023-05-10T14:55:10;22.30;54.50
37518;DHT22;23366;52.498;13.446;2023-05-10T14:57:36;22.30;54.50
37518;DHT22;23366;52.498;13.446;2023-05-10T15:00:02;22.30;54.30
37518;DHT22;23366;52.498;13.446;2023-05-10T15:02:28;22.40;54.80
37518;DHT22;23366;52.498;13.446;2023-05-10T15:04:54;22.40;55.10
37518;DHT22;23366;52.498;13.446;2023-05-10T15:07:19;22.40;54.90
37518;DHT22;23366;52.498;13.446;2023-05-10T15:09:45;22.30;54.80
37518;DHT22;23366;52.498;13.446;2023-05-10T15:12:11;22.20;54.70
37518;DHT22;23366;52.498;13.446;2023-05-10T15:14:37;22.20;55.50
37518;DHT22;23366;52.498;13.446;2023-05-10T15:17:02;22.10;55.60
37518;DHT22;23366;52.498;13.446;2023-05-10T15:19:28;22.00;55.40
37518;DHT22;23366;52.498;13.446;2023-05-10T15:21:56;22.00;55.60
37518;DHT22;23366;52.498;13.446;2023-05-10T15:24:21;22.00;55.20
37518;DHT22;23366;52.498;13.446;2023-05-10T15:26:47;22.00;55.60
37518;DHT22;23366;52.498;13.446;2023-05-10T15:29:13;22.00;55.00
37518;DHT22;23366;52.498;13.446;2023-05-10T15:31:48;21.90;55.30
37518;DHT22;23366;52.498;13.446;2023-05-10T15:34:14;21.90;55.50
37518;DHT22;23366;52.498;13.446;2023-05-10T15:36:40;21.80;56.00
37518;DHT22;23366;52.498;13.446;2023-05-10T15:39:05;21.80;56.40
37518;DHT22;23366;52.498;13.446;2023-05-10T15:41:31;21.70;56.40
37518;DHT22;23366;52.498;13.446;2023-05-10T15:43:57;21.60;56.90